sensor_id;sensor_type;location;lat;lon;timestamp;P1;durP1;ratioP1;P2;durP2;ratioP2
24617;SDS011;12762;51.730;5.356;2024-02-14T00:00:12;5.67;;;2.73;;
24617;SDS011;12762;51.730;5.356;2024-02-14T00:02:45;4.97;;;2.80;;
24617;SDS011;12762;51.730;5.356;2024-02-14T00:05:16;5.33;;;3.20;;
24617;SDS011;12762;51.730;5.356;2024-02-14T00:07:43;9.63;;;3.17;;
24617;SDS011;12762;51.730;5.356;2024-02-14T00:10:16;8.27;;;3.27;;
24617;SDS011;12762;51.730;5.356;2024-02-14T00:12:42;6.47;;;3.40;;
24617;SDS011;12762;51.730;5.356;2024-02-14T00:15:09;5.13;;;3.40;;
24617;SDS011;12762;51.730;5.356;2024-02-14T00:17:36;4.93;;;2.90;;
24617;SDS011;12762;51.730;5.356;2024-02-14T00:20:03;5.60;;;2.87;;
24617;SDS011;12762;51.730;5.356;2024-02-14T00:22:31;5.67;;;3.33;;
24617;SDS011;12762;51.730;5.356;2024-02-14T00:24:58;6.40;;;3.17;;
24617;SDS011;12762;51.730;5.356;2024-02-14T00:27:25;7.00;;;3.43;;
24617;SDS011;12762;51.730;5.356;2024-02-14T00:29:53;7.93;;;3.10;;
24617;SDS011;12762;51.730;5.356;2024-02-14T00:32:21;4.97;;;3.00;;
24617;SDS011;12762;51.730;5.356;2024-02-14T00:34:48;6.63;;;3.60;;
24617;SDS011;12762;51.730;5.356;2024-02-14T00:37:20;5.90;;;3.70;;
24617;SDS011;12762;51.730;5.356;2024-02-14T00:39:46;8.07;;;3.83;;
24617;SDS011;12762;51.730;5.356;2024-02-14T00:42:16;7.07;;;3.70;;
24617;SDS011;12762;51.730;5.356;2024-02-14T00:44:43;7.10;;;3.83;;
24617;SDS011;12762;51.730;5.356;2024-02-14T00:47:10;6.77;;;3.90;;
24617;SDS011;12762;51.730;5.356;2024-02-14T00:49:40;6.37;;;3.60;;
24617;SDS011;12762;51.730;5.356;2024-02-14T00:52:07;7.27;;;3.80;;
24617;SDS011;12762;51.730;5.356;2024-02-14T00:54:35;5.03;;;3.50;;
24617;SDS011;12762;51.730;5.356;2024-02-14T00:57:02;6.50;;;3.83;;
24617;SDS011;12762;51.730;5.356;2024-02-14T00:59:29;7.67;;;4.40;;
24617;SDS011;12762;51.730;5.356;2024-02-14T01:01:55;5.23;;;3.50;;
24617;SDS011;12762;51.730;5.356;2024-02-14T01:04:22;7.60;;;3.80;;
24617;SDS011;12762;51.730;5.356;2024-02-14T01:06:49;5.77;;;4.30;;
24617;SDS011;12762;51.730;5.356;2024-02-14T01:09:18;7.07;;;4.37;;
24617;SDS011;12762;51.730;5.356;2024-02-14T01:11:45;10.60;;;4.37;;
24617;SDS011;12762;51.730;5.356;2024-02-14T01:14:12;7.70;;;4.07;;
24617;SDS011;12762;51.730;5.356;2024-02-14T01:16:43;8.53;;;4.70;;
24617;SDS011;12762;51.730;5.356;2024-02-14T01:19:11;8.03;;;4.50;;
24617;SDS011;12762;51.730;5.356;2024-02-14T01:21:41;10.50;;;4.40;;
24617;SDS011;12762;51.730;5.356;2024-02-14T01:24:08;9.50;;;4.80;;
24617;SDS011;12762;51.730;5.356;2024-02-14T01:26:37;8.87;;;4.60;;
24617;SDS011;12762;51.730;5.356;2024-02-14T01:29:04;9.63;;;4.57;;
24617;SDS011;12762;51.730;5.356;2024-02-14T01:31:32;7.23;;;4.37;;
24617;SDS011;12762;51.730;5.356;2024-02-14T01:34:00;7.20;;;4.03;;
24617;SDS011;12762;51.730;5.356;2024-02-14T01:36:35;10.37;;;4.80;;
24617;SDS011;12762;51.730;5.356;2024-02-14T01:39:03;7.93;;;4.80;;
24617;SDS011;12762;51.730;5.356;2024-02-14T01:41:29;9.87;;;4.80;;
24617;SDS011;12762;51.730;5.356;2024-02-14T01:43:56;8.20;;;4.70;;
24617;SDS011;12762;51.730;5.356;2024-02-14T01:46:28;9.10;;;5.10;;
24617;SDS011;12762;51.730;5.356;2024-02-14T01:48:55;11.00;;;5.03;;
24617;SDS011;12762;51.730;5.356;2024-02-14T01:51:23;8.70;;;4.73;;
24617;SDS011;12762;51.730;5.356;2024-02-14T01:53:51;8.57;;;4.83;;
24617;SDS011;12762;51.730;5.356;2024-02-14T01:56:19;8.67;;;4.70;;
24617;SDS011;12762;51.730;5.356;2024-02-14T01:58:46;7.87;;;4.67;;
24617;SDS011;12762;51.730;5.356;2024-02-14T02:01:16;6.50;;;4.10;;
24617;SDS011;12762;51.730;5.356;2024-02-14T02:03:44;7.87;;;4.77;;
24617;SDS011;12762;51.730;5.356;2024-02-14T02:06:14;7.10;;;4.60;;
24617;SDS011;12762;51.730;5.356;2024-02-14T02:08:43;8.27;;;4.90;;
24617;SDS011;12762;51.730;5.356;2024-02-14T02:11:10;9.47;;;4.97;;
24617;SDS011;12762;51.730;5.356;2024-02-14T02:13:37;9.83;;;4.80;;
24617;SDS011;12762;51.730;5.356;2024-02-14T02:16:05;7.73;;;4.30;;
24617;SDS011;12762;51.730;5.356;2024-02-14T02:18:32;8.53;;;4.87;;
24617;SDS011;12762;51.730;5.356;2024-02-14T02:21:03;8.70;;;4.77;;
24617;SDS011;12762;51.730;5.356;2024-02-14T02:23:33;8.40;;;4.63;;
24617;SDS011;12762;51.730;5.356;2024-02-14T02:26:01;10.03;;;5.30;;
24617;SDS011;12762;51.730;5.356;2024-02-14T02:28:28;7.93;;;4.83;;
24617;SDS011;12762;51.730;5.356;2024-02-14T02:30:55;7.83;;;4.43;;
24617;SDS011;12762;51.730;5.356;2024-02-14T02:33:25;7.83;;;4.87;;
24617;SDS011;12762;51.730;5.356;2024-02-14T02:35:52;8.50;;;5.17;;
24617;SDS011;12762;51.730;5.356;2024-02-14T02:38:19;9.07;;;4.93;;
24617;SDS011;12762;51.730;5.356;2024-02-14T02:40:49;8.73;;;4.90;;
24617;SDS011;12762;51.730;5.356;2024-02-14T02:43:15;7.57;;;5.30;;
24617;SDS011;12762;51.730;5.356;2024-02-14T02:45:48;8.73;;;4.40;;
24617;SDS011;12762;51.730;5.356;2024-02-14T02:48:15;7.03;;;4.77;;
24617;SDS011;12762;51.730;5.356;2024-02-14T02:50:42;9.47;;;5.23;;
24617;SDS011;12762;51.730;5.356;2024-02-14T02:53:10;10.20;;;5.70;;
24617;SDS011;12762;51.730;5.356;2024-02-14T02:55:37;9.10;;;5.50;;
24617;SDS011;12762;51.730;5.356;2024-02-14T02:58:04;11.33;;;6.03;;
24617;SDS011;12762;51.730;5.356;2024-02-14T03:00:33;11.73;;;5.80;;
24617;SDS011;12762;51.730;5.356;2024-02-14T03:03:00;10.20;;;6.53;;
24617;SDS011;12762;51.730;5.356;2024-02-14T03:05:30;11.17;;;7.07;;
24617;SDS011;12762;51.730;5.356;2024-02-14T03:08:00;10.30;;;6.60;;
24617;SDS011;12762;51.730;5.356;2024-02-14T03:10:27;10.77;;;6.37;;
24617;SDS011;12762;51.730;5.356;2024-02-14T03:12:55;13.03;;;7.20;;
24617;SDS011;12762;51.730;5.356;2024-02-14T03:15:21;11.60;;;6.90;;
24617;SDS011;12762;51.730;5.356;2024-02-14T03:17:52;9.97;;;6.67;;
24617;SDS011;12762;51.730;5.356;2024-02-14T03:20:21;9.13;;;6.33;;
24617;SDS011;12762;51.730;5.356;2024-02-14T03:22:48;9.33;;;6.30;;
24617;SDS011;12762;51.730;5.356;2024-02-14T03:25:19;12.07;;;7.20;;
24617;SDS011;12762;51.730;5.356;2024-02-14T03:27:47;9.77;;;7.63;;
24617;SDS011;12762;51.730;5.356;2024-02-14T03:30:17;9.03;;;6.37;;
24617;SDS011;12762;51.730;5.356;2024-02-14T03:32:45;12.23;;;6.70;;
24617;SDS011;12762;51.730;5.356;2024-02-14T03:35:12;12.27;;;6.97;;
24617;SDS011;12762;51.730;5.356;2024-02-14T03:37:40;11.53;;;7.03;;
24617;SDS011;12762;51.730;5.356;2024-02-14T03:40:08;8.90;;;6.40;;
24617;SDS011;12762;51.730;5.356;2024-02-14T03:42:36;11.03;;;6.53;;
24617;SDS011;12762;51.730;5.356;2024-02-14T03:45:06;8.37;;;6.17;;
24617;SDS011;12762;51.730;5.356;2024-02-14T03:47:34;10.00;;;6.43;;
24617;SDS011;12762;51.730;5.356;2024-02-14T03:50:06;10.07;;;6.33;;
24617;SDS011;12762;51.730;5.356;2024-02-14T03:52:34;10.20;;;6.60;;
24617;SDS011;12762;51.730;5.356;2024-02-14T03:55:01;8.67;;;6.60;;
24617;SDS011;12762;51.730;5.356;2024-02-14T03:57:28;9.47;;;6.37;;
24617;SDS011;12762;51.730;5.356;2024-02-14T03:59:55;12.57;;;6.90;;
24617;SDS011;12762;51.730;5.356;2024-02-14T04:02:29;10.50;;;6.47;;
24617;SDS011;12762;51.730;5.356;2024-02-14T04:04:58;14.70;;;6.87;;
24617;SDS011;12762;51.730;5.356;2024-02-14T04:07:25;10.47;;;6.80;;
24617;SDS011;12762;51.730;5.356;2024-02-14T04:09:52;13.13;;;6.37;;
24617;SDS011;12762;51.730;5.356;2024-02-14T04:12:19;9.17;;;6.30;;
24617;SDS011;12762;51.730;5.356;2024-02-14T04:14:46;10.10;;;6.40;;
24617;SDS011;12762;51.730;5.356;2024-02-14T04:17:13;10.83;;;6.47;;
24617;SDS011;12762;51.730;5.356;2024-02-14T04:19:40;12.07;;;6.30;;
24617;SDS011;12762;51.730;5.356;2024-02-14T04:22:07;10.03;;;6.30;;
24617;SDS011;12762;51.730;5.356;2024-02-14T04:24:34;11.87;;;7.10;;
24617;SDS011;12762;51.730;5.356;2024-02-14T04:27:01;9.77;;;5.70;;
24617;SDS011;12762;51.730;5.356;2024-02-14T04:29:30;9.87;;;6.40;;
24617;SDS011;12762;51.730;5.356;2024-02-14T04:31:59;11.90;;;6.47;;
24617;SDS011;12762;51.730;5.356;2024-02-14T04:34:26;11.60;;;7.13;;
24617;SDS011;12762;51.730;5.356;2024-02-14T04:36:53;10.23;;;6.20;;
24617;SDS011;12762;51.730;5.356;2024-02-14T04:39:20;12.33;;;6.00;;
24617;SDS011;12762;51.730;5.356;2024-02-14T04:41:47;10.17;;;6.37;;
24617;SDS011;12762;51.730;5.356;2024-02-14T04:44:27;10.03;;;7.20;;
24617;SDS011;12762;51.730;5.356;2024-02-14T04:47:03;11.33;;;6.47;;
24617;SDS011;12762;51.730;5.356;2024-02-14T04:49:31;13.40;;;6.43;;
24617;SDS011;12762;51.730;5.356;2024-02-14T04:51:58;9.20;;;6.13;;
24617;SDS011;12762;51.730;5.356;2024-02-14T04:54:25;8.93;;;6.70;;
24617;SDS011;12762;51.730;5.356;2024-02-14T04:56:52;9.33;;;6.07;;
24617;SDS011;12762;51.730;5.356;2024-02-14T04:59:24;10.27;;;6.57;;
24617;SDS011;12762;51.730;5.356;2024-02-14T05:01:51;11.23;;;6.93;;
24617;SDS011;12762;51.730;5.356;2024-02-14T05:04:20;9.93;;;6.33;;
24617;SDS011;12762;51.730;5.356;2024-02-14T05:06:49;11.37;;;6.80;;
24617;SDS011;12762;51.730;5.356;2024-02-14T05:09:20;9.33;;;7.00;;
24617;SDS011;12762;51.730;5.356;2024-02-14T05:11:48;10.97;;;6.60;;
24617;SDS011;12762;51.730;5.356;2024-02-14T05:14:17;10.23;;;6.47;;
24617;SDS011;12762;51.730;5.356;2024-02-14T05:16:44;11.07;;;7.23;;
24617;SDS011;12762;51.730;5.356;2024-02-14T05:19:11;13.07;;;6.73;;
24617;SDS011;12762;51.730;5.356;2024-02-14T05:21:41;11.37;;;6.77;;
24617;SDS011;12762;51.730;5.356;2024-02-14T05:24:08;10.13;;;7.13;;
24617;SDS011;12762;51.730;5.356;2024-02-14T05:26:35;12.07;;;7.03;;
24617;SDS011;12762;51.730;5.356;2024-02-14T05:29:01;12.07;;;7.80;;
24617;SDS011;12762;51.730;5.356;2024-02-14T05:31:42;12.90;;;7.63;;
24617;SDS011;12762;51.730;5.356;2024-02-14T05:34:10;11.47;;;7.90;;
24617;SDS011;12762;51.730;5.356;2024-02-14T05:36:37;11.77;;;7.80;;
24617;SDS011;12762;51.730;5.356;2024-02-14T05:39:13;12.67;;;8.30;;
24617;SDS011;12762;51.730;5.356;2024-02-14T05:41:43;9.33;;;7.17;;
24617;SDS011;12762;51.730;5.356;2024-02-14T05:44:10;17.50;;;8.93;;
24617;SDS011;12762;51.730;5.356;2024-02-14T05:46:37;12.17;;;7.70;;
24617;SDS011;12762;51.730;5.356;2024-02-14T05:49:03;13.37;;;7.80;;
24617;SDS011;12762;51.730;5.356;2024-02-14T05:51:30;10.07;;;7.17;;
24617;SDS011;12762;51.730;5.356;2024-02-14T05:53:58;10.70;;;7.47;;
24617;SDS011;12762;51.730;5.356;2024-02-14T05:56:25;11.33;;;7.43;;
24617;SDS011;12762;51.730;5.356;2024-02-14T05:58:51;12.33;;;7.30;;
24617;SDS011;12762;51.730;5.356;2024-02-14T06:01:18;10.77;;;7.37;;
24617;SDS011;12762;51.730;5.356;2024-02-14T06:03:51;11.93;;;7.10;;
24617;SDS011;12762;51.730;5.356;2024-02-14T06:06:21;11.27;;;7.10;;
24617;SDS011;12762;51.730;5.356;2024-02-14T06:08:49;11.50;;;6.80;;
24617;SDS011;12762;51.730;5.356;2024-02-14T06:11:16;10.80;;;7.27;;
24617;SDS011;12762;51.730;5.356;2024-02-14T06:13:43;11.73;;;7.27;;
24617;SDS011;12762;51.730;5.356;2024-02-14T06:16:10;11.63;;;6.83;;
24617;SDS011;12762;51.730;5.356;2024-02-14T06:18:37;10.83;;;7.53;;
24617;SDS011;12762;51.730;5.356;2024-02-14T06:21:06;9.57;;;6.90;;
24617;SDS011;12762;51.730;5.356;2024-02-14T06:23:34;9.77;;;6.80;;
24617;SDS011;12762;51.730;5.356;2024-02-14T06:26:01;14.43;;;8.00;;
24617;SDS011;12762;51.730;5.356;2024-02-14T06:28:30;11.73;;;7.27;;
24617;SDS011;12762;51.730;5.356;2024-02-14T06:30:57;11.03;;;7.40;;
24617;SDS011;12762;51.730;5.356;2024-02-14T06:33:27;10.07;;;7.53;;
24617;SDS011;12762;51.730;5.356;2024-02-14T06:35:54;12.13;;;8.23;;
24617;SDS011;12762;51.730;5.356;2024-02-14T06:38:22;12.20;;;7.83;;
24617;SDS011;12762;51.730;5.356;2024-02-14T06:40:48;12.07;;;8.27;;
24617;SDS011;12762;51.730;5.356;2024-02-14T06:43:15;13.90;;;8.67;;
24617;SDS011;12762;51.730;5.356;2024-02-14T06:45:45;13.27;;;8.97;;
24617;SDS011;12762;51.730;5.356;2024-02-14T06:48:12;14.40;;;8.77;;
24617;SDS011;12762;51.730;5.356;2024-02-14T06:50:42;15.07;;;8.90;;
24617;SDS011;12762;51.730;5.356;2024-02-14T06:53:09;14.40;;;10.10;;
24617;SDS011;12762;51.730;5.356;2024-02-14T06:55:37;15.57;;;9.43;;
24617;SDS011;12762;51.730;5.356;2024-02-14T06:58:04;18.17;;;10.70;;
24617;SDS011;12762;51.730;5.356;2024-02-14T07:00:32;18.83;;;9.97;;
24617;SDS011;12762;51.730;5.356;2024-02-14T07:02:59;16.77;;;9.83;;
24617;SDS011;12762;51.730;5.356;2024-02-14T07:05:29;18.13;;;10.67;;
24617;SDS011;12762;51.730;5.356;2024-02-14T07:07:56;18.13;;;10.90;;
24617;SDS011;12762;51.730;5.356;2024-02-14T07:10:23;17.50;;;10.93;;
24617;SDS011;12762;51.730;5.356;2024-02-14T07:12:49;17.20;;;10.60;;
24617;SDS011;12762;51.730;5.356;2024-02-14T07:15:19;15.70;;;9.97;;
24617;SDS011;12762;51.730;5.356;2024-02-14T07:17:47;16.47;;;10.00;;
24617;SDS011;12762;51.730;5.356;2024-02-14T07:20:14;19.07;;;10.97;;
24617;SDS011;12762;51.730;5.356;2024-02-14T07:22:41;18.30;;;10.53;;
24617;SDS011;12762;51.730;5.356;2024-02-14T07:25:08;13.70;;;9.77;;
24617;SDS011;12762;51.730;5.356;2024-02-14T07:27:36;14.03;;;9.67;;
24617;SDS011;12762;51.730;5.356;2024-02-14T07:30:02;15.57;;;9.20;;
24617;SDS011;12762;51.730;5.356;2024-02-14T07:32:31;13.63;;;9.13;;
24617;SDS011;12762;51.730;5.356;2024-02-14T07:34:59;14.90;;;9.33;;
24617;SDS011;12762;51.730;5.356;2024-02-14T07:37:25;13.60;;;9.80;;
24617;SDS011;12762;51.730;5.356;2024-02-14T07:39:52;15.33;;;10.10;;
24617;SDS011;12762;51.730;5.356;2024-02-14T07:42:22;15.67;;;9.87;;
24617;SDS011;12762;51.730;5.356;2024-02-14T07:44:49;13.60;;;9.80;;
24617;SDS011;12762;51.730;5.356;2024-02-14T07:47:18;16.50;;;10.03;;
24617;SDS011;12762;51.730;5.356;2024-02-14T07:49:45;19.33;;;11.67;;
24617;SDS011;12762;51.730;5.356;2024-02-14T07:52:14;18.40;;;11.07;;
24617;SDS011;12762;51.730;5.356;2024-02-14T07:54:41;20.30;;;11.30;;
24617;SDS011;12762;51.730;5.356;2024-02-14T07:57:08;16.17;;;11.57;;
24617;SDS011;12762;51.730;5.356;2024-02-14T07:59:35;23.73;;;13.07;;
24617;SDS011;12762;51.730;5.356;2024-02-14T08:02:02;22.23;;;12.70;;
24617;SDS011;12762;51.730;5.356;2024-02-14T08:04:29;24.97;;;13.27;;
24617;SDS011;12762;51.730;5.356;2024-02-14T08:06:55;26.37;;;13.73;;
24617;SDS011;12762;51.730;5.356;2024-02-14T08:09:22;27.77;;;13.63;;
24617;SDS011;12762;51.730;5.356;2024-02-14T08:11:49;25.40;;;12.50;;
24617;SDS011;12762;51.730;5.356;2024-02-14T08:14:19;20.77;;;13.00;;
24617;SDS011;12762;51.730;5.356;2024-02-14T08:16:48;21.97;;;12.63;;
24617;SDS011;12762;51.730;5.356;2024-02-14T08:19:15;23.47;;;12.77;;
24617;SDS011;12762;51.730;5.356;2024-02-14T08:21:42;20.53;;;12.77;;
24617;SDS011;12762;51.730;5.356;2024-02-14T08:24:09;20.10;;;12.10;;
24617;SDS011;12762;51.730;5.356;2024-02-14T08:26:38;17.33;;;11.57;;
24617;SDS011;12762;51.730;5.356;2024-02-14T08:29:05;19.57;;;11.37;;
24617;SDS011;12762;51.730;5.356;2024-02-14T08:31:32;19.80;;;11.33;;
24617;SDS011;12762;51.730;5.356;2024-02-14T08:34:07;20.10;;;10.53;;
24617;SDS011;12762;51.730;5.356;2024-02-14T08:36:36;20.93;;;11.10;;
24617;SDS011;12762;51.730;5.356;2024-02-14T08:39:07;19.20;;;10.77;;
24617;SDS011;12762;51.730;5.356;2024-02-14T08:41:37;20.53;;;11.30;;
24617;SDS011;12762;51.730;5.356;2024-02-14T08:44:04;16.57;;;10.17;;
24617;SDS011;12762;51.730;5.356;2024-02-14T08:46:31;16.30;;;9.73;;
24617;SDS011;12762;51.730;5.356;2024-02-14T08:49:01;16.03;;;9.87;;
24617;SDS011;12762;51.730;5.356;2024-02-14T08:51:29;16.97;;;9.30;;
24617;SDS011;12762;51.730;5.356;2024-02-14T08:53:56;13.53;;;9.30;;
24617;SDS011;12762;51.730;5.356;2024-02-14T08:56:25;16.77;;;9.03;;
24617;SDS011;12762;51.730;5.356;2024-02-14T08:58:52;15.63;;;9.87;;
24617;SDS011;12762;51.730;5.356;2024-02-14T09:01:19;16.87;;;10.10;;
24617;SDS011;12762;51.730;5.356;2024-02-14T09:03:48;15.50;;;9.60;;
24617;SDS011;12762;51.730;5.356;2024-02-14T09:06:16;17.13;;;9.93;;
24617;SDS011;12762;51.730;5.356;2024-02-14T09:08:47;19.10;;;10.77;;
24617;SDS011;12762;51.730;5.356;2024-02-14T09:11:14;15.87;;;8.80;;
24617;SDS011;12762;51.730;5.356;2024-02-14T09:13:41;18.60;;;10.53;;
24617;SDS011;12762;51.730;5.356;2024-02-14T09:16:09;15.90;;;10.03;;
24617;SDS011;12762;51.730;5.356;2024-02-14T09:18:36;18.47;;;10.00;;
24617;SDS011;12762;51.730;5.356;2024-02-14T09:21:03;19.63;;;10.53;;
24617;SDS011;12762;51.730;5.356;2024-02-14T09:23:32;21.00;;;10.27;;
24617;SDS011;12762;51.730;5.356;2024-02-14T09:25:59;17.50;;;9.90;;
24617;SDS011;12762;51.730;5.356;2024-02-14T09:28:27;18.37;;;10.37;;
24617;SDS011;12762;51.730;5.356;2024-02-14T09:30:54;15.50;;;9.93;;
24617;SDS011;12762;51.730;5.356;2024-02-14T09:33:21;20.20;;;10.47;;
24617;SDS011;12762;51.730;5.356;2024-02-14T09:35:48;15.37;;;9.67;;
24617;SDS011;12762;51.730;5.356;2024-02-14T09:38:18;14.80;;;9.63;;
24617;SDS011;12762;51.730;5.356;2024-02-14T09:40:45;14.20;;;9.43;;
24617;SDS011;12762;51.730;5.356;2024-02-14T09:43:22;16.43;;;9.60;;
24617;SDS011;12762;51.730;5.356;2024-02-14T09:45:58;15.57;;;9.57;;
24617;SDS011;12762;51.730;5.356;2024-02-14T09:48:25;18.03;;;9.23;;
24617;SDS011;12762;51.730;5.356;2024-02-14T09:50:54;14.23;;;9.13;;
24617;SDS011;12762;51.730;5.356;2024-02-14T09:53:22;15.17;;;9.03;;
24617;SDS011;12762;51.730;5.356;2024-02-14T09:55:49;16.17;;;9.07;;
24617;SDS011;12762;51.730;5.356;2024-02-14T09:58:17;15.23;;;8.90;;
24617;SDS011;12762;51.730;5.356;2024-02-14T10:00:46;16.43;;;8.57;;
24617;SDS011;12762;51.730;5.356;2024-02-14T10:03:13;15.17;;;8.97;;
24617;SDS011;12762;51.730;5.356;2024-02-14T10:05:41;15.20;;;8.43;;
24617;SDS011;12762;51.730;5.356;2024-02-14T10:08:08;13.63;;;8.93;;
24617;SDS011;12762;51.730;5.356;2024-02-14T10:10:37;14.33;;;8.60;;
24617;SDS011;12762;51.730;5.356;2024-02-14T10:13:05;14.83;;;8.27;;
24617;SDS011;12762;51.730;5.356;2024-02-14T10:15:35;12.70;;;8.00;;
24617;SDS011;12762;51.730;5.356;2024-02-14T10:18:02;15.27;;;8.77;;
24617;SDS011;12762;51.730;5.356;2024-02-14T10:20:30;17.73;;;8.90;;
24617;SDS011;12762;51.730;5.356;2024-02-14T10:23:01;11.40;;;8.53;;
24617;SDS011;12762;51.730;5.356;2024-02-14T10:25:30;13.67;;;8.33;;
24617;SDS011;12762;51.730;5.356;2024-02-14T10:28:03;15.00;;;8.57;;
24617;SDS011;12762;51.730;5.356;2024-02-14T10:30:35;15.67;;;9.03;;
24617;SDS011;12762;51.730;5.356;2024-02-14T10:33:04;16.47;;;8.30;;
24617;SDS011;12762;51.730;5.356;2024-02-14T10:35:49;13.83;;;8.57;;
24617;SDS011;12762;51.730;5.356;2024-02-14T10:38:19;15.73;;;8.50;;
24617;SDS011;12762;51.730;5.356;2024-02-14T10:40:49;14.80;;;7.90;;
24617;SDS011;12762;51.730;5.356;2024-02-14T10:43:17;12.70;;;8.53;;
24617;SDS011;12762;51.730;5.356;2024-02-14T10:45:44;14.60;;;8.57;;
24617;SDS011;12762;51.730;5.356;2024-02-14T10:48:12;13.27;;;7.90;;
24617;SDS011;12762;51.730;5.356;2024-02-14T10:50:43;12.50;;;7.80;;
24617;SDS011;12762;51.730;5.356;2024-02-14T10:53:13;14.37;;;6.90;;
24617;SDS011;12762;51.730;5.356;2024-02-14T10:55:47;13.07;;;6.90;;
24617;SDS011;12762;51.730;5.356;2024-02-14T10:58:18;13.57;;;7.47;;
24617;SDS011;12762;51.730;5.356;2024-02-14T11:00:45;11.90;;;6.80;;
24617;SDS011;12762;51.730;5.356;2024-02-14T11:03:13;13.07;;;7.20;;
24617;SDS011;12762;51.730;5.356;2024-02-14T11:05:48;11.73;;;6.57;;
24617;SDS011;12762;51.730;5.356;2024-02-14T11:08:19;12.37;;;6.40;;
24617;SDS011;12762;51.730;5.356;2024-02-14T11:10:55;12.97;;;6.17;;
24617;SDS011;12762;51.730;5.356;2024-02-14T11:13:30;10.80;;;6.80;;
24617;SDS011;12762;51.730;5.356;2024-02-14T11:16:02;12.70;;;6.60;;
24617;SDS011;12762;51.730;5.356;2024-02-14T11:18:30;13.83;;;7.30;;
24617;SDS011;12762;51.730;5.356;2024-02-14T11:21:15;13.43;;;6.90;;
24617;SDS011;12762;51.730;5.356;2024-02-14T11:23:53;9.43;;;6.50;;
24617;SDS011;12762;51.730;5.356;2024-02-14T11:26:20;9.97;;;5.90;;
24617;SDS011;12762;51.730;5.356;2024-02-14T11:28:49;10.87;;;6.53;;
24617;SDS011;12762;51.730;5.356;2024-02-14T11:31:30;12.73;;;5.93;;
24617;SDS011;12762;51.730;5.356;2024-02-14T11:34:07;9.80;;;6.20;;
24617;SDS011;12762;51.730;5.356;2024-02-14T11:36:35;9.30;;;5.70;;
24617;SDS011;12762;51.730;5.356;2024-02-14T11:39:03;12.90;;;5.87;;
24617;SDS011;12762;51.730;5.356;2024-02-14T11:41:34;10.03;;;6.13;;
24617;SDS011;12762;51.730;5.356;2024-02-14T11:44:02;12.10;;;5.53;;
24617;SDS011;12762;51.730;5.356;2024-02-14T11:46:33;9.63;;;6.10;;
24617;SDS011;12762;51.730;5.356;2024-02-14T11:49:02;11.00;;;5.70;;
24617;SDS011;12762;51.730;5.356;2024-02-14T11:51:31;9.97;;;6.50;;
24617;SDS011;12762;51.730;5.356;2024-02-14T11:54:05;9.40;;;5.77;;
24617;SDS011;12762;51.730;5.356;2024-02-14T11:56:35;8.93;;;5.23;;
24617;SDS011;12762;51.730;5.356;2024-02-14T11:59:05;8.53;;;5.00;;
24617;SDS011;12762;51.730;5.356;2024-02-14T12:01:34;7.43;;;4.63;;
24617;SDS011;12762;51.730;5.356;2024-02-14T12:04:06;7.37;;;4.73;;
24617;SDS011;12762;51.730;5.356;2024-02-14T12:06:39;9.83;;;4.90;;
24617;SDS011;12762;51.730;5.356;2024-02-14T12:09:09;7.10;;;4.13;;
24617;SDS011;12762;51.730;5.356;2024-02-14T12:11:39;7.60;;;4.57;;
24617;SDS011;12762;51.730;5.356;2024-02-14T12:14:10;8.10;;;4.97;;
24617;SDS011;12762;51.730;5.356;2024-02-14T12:16:37;7.93;;;4.87;;
24617;SDS011;12762;51.730;5.356;2024-02-14T12:19:07;6.83;;;4.30;;
24617;SDS011;12762;51.730;5.356;2024-02-14T12:21:39;6.37;;;4.60;;
24617;SDS011;12762;51.730;5.356;2024-02-14T12:24:06;7.10;;;4.73;;
24617;SDS011;12762;51.730;5.356;2024-02-14T12:26:37;6.93;;;4.40;;
24617;SDS011;12762;51.730;5.356;2024-02-14T12:29:05;6.37;;;3.93;;
24617;SDS011;12762;51.730;5.356;2024-02-14T12:31:35;6.40;;;3.90;;
24617;SDS011;12762;51.730;5.356;2024-02-14T12:34:03;6.90;;;4.67;;
24617;SDS011;12762;51.730;5.356;2024-02-14T12:36:33;7.40;;;4.33;;
24617;SDS011;12762;51.730;5.356;2024-02-14T12:39:01;5.83;;;4.43;;
24617;SDS011;12762;51.730;5.356;2024-02-14T12:41:31;6.37;;;4.30;;
24617;SDS011;12762;51.730;5.356;2024-02-14T12:43:58;6.97;;;4.50;;
24617;SDS011;12762;51.730;5.356;2024-02-14T12:46:26;8.80;;;5.10;;
24617;SDS011;12762;51.730;5.356;2024-02-14T12:48:54;8.90;;;4.50;;
24617;SDS011;12762;51.730;5.356;2024-02-14T12:51:21;6.83;;;4.57;;
24617;SDS011;12762;51.730;5.356;2024-02-14T12:53:48;6.80;;;4.67;;
24617;SDS011;12762;51.730;5.356;2024-02-14T12:56:15;9.03;;;4.37;;
24617;SDS011;12762;51.730;5.356;2024-02-14T12:58:42;7.87;;;4.47;;
24617;SDS011;12762;51.730;5.356;2024-02-14T13:01:12;8.70;;;4.90;;
24617;SDS011;12762;51.730;5.356;2024-02-14T13:03:41;8.57;;;5.07;;
24617;SDS011;12762;51.730;5.356;2024-02-14T13:06:08;7.63;;;5.43;;
24617;SDS011;12762;51.730;5.356;2024-02-14T13:08:34;7.30;;;5.03;;
24617;SDS011;12762;51.730;5.356;2024-02-14T13:11:02;8.50;;;5.27;;
24617;SDS011;12762;51.730;5.356;2024-02-14T13:13:29;9.37;;;4.57;;
24617;SDS011;12762;51.730;5.356;2024-02-14T13:15:56;5.83;;;4.53;;
24617;SDS011;12762;51.730;5.356;2024-02-14T13:18:23;8.37;;;4.67;;
24617;SDS011;12762;51.730;5.356;2024-02-14T13:20:53;7.90;;;5.00;;
24617;SDS011;12762;51.730;5.356;2024-02-14T13:23:26;6.53;;;4.47;;
24617;SDS011;12762;51.730;5.356;2024-02-14T13:25:53;7.30;;;5.03;;
24617;SDS011;12762;51.730;5.356;2024-02-14T13:28:19;7.10;;;4.67;;
24617;SDS011;12762;51.730;5.356;2024-02-14T13:30:46;8.13;;;5.00;;
24617;SDS011;12762;51.730;5.356;2024-02-14T13:33:18;7.30;;;4.77;;
24617;SDS011;12762;51.730;5.356;2024-02-14T13:35:45;7.53;;;5.07;;
24617;SDS011;12762;51.730;5.356;2024-02-14T13:38:14;7.33;;;5.13;;
24617;SDS011;12762;51.730;5.356;2024-02-14T13:40:42;6.43;;;4.57;;
24617;SDS011;12762;51.730;5.356;2024-02-14T13:43:12;6.50;;;4.93;;
24617;SDS011;12762;51.730;5.356;2024-02-14T13:45:44;7.90;;;4.77;;
24617;SDS011;12762;51.730;5.356;2024-02-14T13:48:11;8.83;;;5.30;;
24617;SDS011;12762;51.730;5.356;2024-02-14T13:50:39;7.43;;;5.07;;
24617;SDS011;12762;51.730;5.356;2024-02-14T13:53:07;8.57;;;5.27;;
24617;SDS011;12762;51.730;5.356;2024-02-14T13:55:34;8.00;;;5.07;;
24617;SDS011;12762;51.730;5.356;2024-02-14T13:58:04;6.60;;;5.03;;
24617;SDS011;12762;51.730;5.356;2024-02-14T14:00:31;7.97;;;5.10;;
24617;SDS011;12762;51.730;5.356;2024-02-14T14:03:00;8.37;;;4.80;;
24617;SDS011;12762;51.730;5.356;2024-02-14T14:05:26;7.87;;;5.17;;
24617;SDS011;12762;51.730;5.356;2024-02-14T14:07:53;8.17;;;5.40;;
24617;SDS011;12762;51.730;5.356;2024-02-14T14:10:25;8.40;;;5.03;;
24617;SDS011;12762;51.730;5.356;2024-02-14T14:12:53;7.43;;;4.83;;
24617;SDS011;12762;51.730;5.356;2024-02-14T14:15:23;7.43;;;5.10;;
24617;SDS011;12762;51.730;5.356;2024-02-14T14:17:50;9.23;;;5.17;;
24617;SDS011;12762;51.730;5.356;2024-02-14T14:20:18;7.47;;;5.20;;
24617;SDS011;12762;51.730;5.356;2024-02-14T14:22:46;7.97;;;5.23;;
24617;SDS011;12762;51.730;5.356;2024-02-14T14:25:13;7.97;;;5.67;;
24617;SDS011;12762;51.730;5.356;2024-02-14T14:27:44;7.60;;;5.67;;
24617;SDS011;12762;51.730;5.356;2024-02-14T14:30:11;8.33;;;5.70;;
24617;SDS011;12762;51.730;5.356;2024-02-14T14:32:38;7.33;;;5.63;;
24617;SDS011;12762;51.730;5.356;2024-02-14T14:35:08;9.57;;;5.60;;
24617;SDS011;12762;51.730;5.356;2024-02-14T14:37:38;9.40;;;6.13;;
24617;SDS011;12762;51.730;5.356;2024-02-14T14:40:05;10.60;;;6.60;;
24617;SDS011;12762;51.730;5.356;2024-02-14T14:42:34;11.13;;;6.83;;
24617;SDS011;12762;51.730;5.356;2024-02-14T14:45:01;10.63;;;6.23;;